Time;durP1;ratioP1;P1;durP2;ratioP2;P2;SDS_P1;SDS_P2;PMS_P1;PMS_P2;Temp;Humidity;BMP_temperature;BMP_pressure;BME280_temperature;BME280_humidity;BME280_pressure;Samples;Min_cycle;Max_cycle;Signal;HPM_P1;HPM_P2
2021/05/13 00:00:58;;;;;;;3.57;2.20;;;;;;;;;;5073481;28;20190;-79
2021/05/13 00:03:23;;;;;;;4.07;2.30;;;;;;;;;;5073518;28;20299;-79
2021/05/13 00:05:48;;;;;;;2.20;2.00;;;;;;;;;;5074033;28;20572;-80
2021/05/13 00:08:14;;;;;;;4.07;2.00;;;;;;;;;;5073219;28;20656;-79
2021/05/13 00:10:40;;;;;;;2.17;2.00;;;;;;;;;;5073584;28;20297;-79
2021/05/13 00:13:06;;;;;;;3.23;2.10;;;;;;;;;;5073398;28;20174;-80
2021/05/13 00:15:33;;;;;;;2.93;1.97;;;;;;;;;;5073359;28;20172;-80
2021/05/13 00:17:59;;;;;;;3.27;2.00;;;;;;;;;;5073287;28;20231;-80
2021/05/13 00:20:26;;;;;;;2.13;1.93;;;;;;;;;;5073825;28;20175;-80
2021/05/13 00:22:51;;;;;;;5.30;2.10;;;;;;;;;;5073254;28;20175;-80
2021/05/13 00:25:17;;;;;;;5.13;2.03;;;;;;;;;;5073687;28;20215;-79
2021/05/13 00:27:43;;;;;;;5.03;2.20;;;;;;;;;;5073578;28;20539;-80
2021/05/13 00:30:08;;;;;;;2.30;2.20;;;;;;;;;;5073267;28;20189;-80
2021/05/13 00:32:36;;;;;;;4.60;2.57;;;;;;;;;;5072833;28;20218;-80
2021/05/13 00:35:02;;;;;;;2.00;1.90;;;;;;;;;;5055212;28;20198;-80
2021/05/13 00:37:27;;;;;;;2.63;1.77;;;;;;;;;;5073041;28;20689;-79
2021/05/13 00:39:52;;;;;;;3.60;2.03;;;;;;;;;;5073103;28;20168;-80
2021/05/13 00:42:18;;;;;;;4.50;2.40;;;;;;;;;;5075918;28;20179;-79
2021/05/13 00:44:44;;;;;;;2.43;2.23;;;;;;;;;;5076693;28;20525;-79
2021/05/13 00:47:09;;;;;;;3.50;2.03;;;;;;;;;;5076621;28;20178;-79
2021/05/13 00:49:35;;;;;;;2.00;1.90;;;;;;;;;;5076846;28;20171;-79
2021/05/13 00:52:00;;;;;;;2.57;2.37;;;;;;;;;;5076520;28;20558;-80
2021/05/13 00:54:25;;;;;;;2.20;1.90;;;;;;;;;;5076640;28;20601;-80
2021/05/13 00:56:50;;;;;;;2.40;2.20;;;;;;;;;;5076023;28;20250;-79
2021/05/13 00:59:18;;;;;;;2.03;1.93;;;;;;;;;;5076341;28;20245;-79
2021/05/13 01:04:12;;;;;;;4.20;2.10;;;;;;;;;;5076389;28;20210;-80
2021/05/13 01:06:37;;;;;;;2.30;2.20;;;;;;;;;;5076495;28;20202;-79
2021/05/13 01:09:07;;;;;;;2.40;2.20;;;;;;;;;;5075973;28;20572;-80
2021/05/13 01:11:32;;;;;;;2.57;1.87;;;;;;;;;;5076445;28;20209;-80
2021/05/13 01:14:10;;;;;;;3.07;2.20;;;;;;;;;;5076137;28;20613;-80
2021/05/13 01:16:48;;;;;;;1.93;1.83;;;;;;;;;;5076269;28;20218;-80
2021/05/13 01:19:16;;;;;;;2.20;2.10;;;;;;;;;;5076376;28;20216;-80
2021/05/13 01:21:41;;;;;;;2.53;2.33;;;;;;;;;;5076655;28;20211;-79
2021/05/13 01:24:07;;;;;;;2.77;2.30;;;;;;;;;;5076250;28;20189;-79
2021/05/13 01:26:32;;;;;;;2.30;2.20;;;;;;;;;;5076155;28;20254;-80
2021/05/13 01:29:02;;;;;;;2.30;2.13;;;;;;;;;;5075774;28;20213;-80
2021/05/13 01:31:27;;;;;;;3.17;2.40;;;;;;;;;;5075922;28;20278;-80
2021/05/13 01:33:52;;;;;;;3.03;2.10;;;;;;;;;;5075383;28;20250;-79
2021/05/13 01:36:18;;;;;;;7.33;2.47;;;;;;;;;;5075411;28;20168;-80
2021/05/13 01:38:43;;;;;;;2.30;2.10;;;;;;;;;;5057365;28;20203;-79
2021/05/13 01:41:09;;;;;;;4.53;2.53;;;;;;;;;;5075567;28;20209;-80
2021/05/13 01:43:34;;;;;;;5.77;2.37;;;;;;;;;;5075529;28;20179;-79
2021/05/13 01:46:00;;;;;;;2.30;2.10;;;;;;;;;;5057525;28;20175;-79
2021/05/13 01:48:26;;;;;;;3.50;2.27;;;;;;;;;;5075951;28;20511;-79
2021/05/13 01:50:51;;;;;;;3.40;2.30;;;;;;;;;;5075404;28;20179;-80
2021/05/13 01:53:17;;;;;;;5.60;2.40;;;;;;;;;;5075199;28;20163;-80
2021/05/13 01:55:42;;;;;;;2.27;2.07;;;;;;;;;;5075565;28;20557;-80
2021/05/13 01:58:07;;;;;;;2.37;2.23;;;;;;;;;;5075511;28;20198;-79
2021/05/13 02:00:33;;;;;;;2.77;2.10;;;;;;;;;;5075218;28;20171;-80
2021/05/13 02:02:59;;;;;;;3.67;2.03;;;;;;;;;;5075142;28;20202;-80
2021/05/13 02:05:24;;;;;;;2.13;2.03;;;;;;;;;;5075057;28;20198;-80
2021/05/13 02:07:50;;;;;;;3.93;2.40;;;;;;;;;;5074617;28;20614;-80
2021/05/13 02:10:16;;;;;;;2.33;2.10;;;;;;;;;;5074932;28;20171;-80
2021/05/13 02:12:42;;;;;;;2.43;2.23;;;;;;;;;;5074640;28;20582;-80
2021/05/13 02:15:12;;;;;;;2.80;2.50;;;;;;;;;;5074997;28;20168;-79
2021/05/13 02:17:37;;;;;;;2.23;2.13;;;;;;;;;;5075723;28;20262;-80
2021/05/13 02:20:06;;;;;;;2.70;2.50;;;;;;;;;;5074765;28;20167;-80
2021/05/13 02:22:31;;;;;;;3.90;2.33;;;;;;;;;;5074862;28;20175;-80
2021/05/13 02:24:56;;;;;;;2.87;2.63;;;;;;;;;;5074948;28;20178;-80
2021/05/13 02:27:22;;;;;;;3.10;2.80;;;;;;;;;;5074890;28;20625;-80
2021/05/13 02:29:47;;;;;;;2.40;2.20;;;;;;;;;;5074319;28;20228;-80
2021/05/13 02:32:12;;;;;;;2.97;2.20;;;;;;;;;;5074848;28;20202;-80
2021/05/13 02:34:37;;;;;;;4.10;2.70;;;;;;;;;;5074878;28;20229;-80
2021/05/13 02:37:03;;;;;;;4.97;2.30;;;;;;;;;;5074397;28;20175;-80
2021/05/13 02:39:28;;;;;;;3.50;2.40;;;;;;;;;;5056417;28;20176;-80
2021/05/13 02:41:53;;;;;;;2.80;2.60;;;;;;;;;;5074542;28;20171;-80
2021/05/13 02:44:19;;;;;;;4.77;2.50;;;;;;;;;;5074709;28;20217;-80
2021/05/13 02:46:44;;;;;;;2.90;2.50;;;;;;;;;;5075216;28;20502;-80
2021/05/13 02:49:09;;;;;;;3.87;2.40;;;;;;;;;;5074039;28;20641;-80
2021/05/13 02:51:35;;;;;;;3.30;2.43;;;;;;;;;;5074302;28;20163;-80
2021/05/13 02:54:00;;;;;;;3.17;2.50;;;;;;;;;;5074020;28;20174;-80
2021/05/13 02:56:25;;;;;;;3.00;2.70;;;;;;;;;;5074515;28;20171;-80
2021/05/13 02:58:51;;;;;;;5.37;2.50;;;;;;;;;;5074031;28;20198;-80
2021/05/13 03:01:27;;;;;;;3.47;2.57;;;;;;;;;;5074640;28;20167;-79
2021/05/13 03:03:53;;;;;;;3.07;2.60;;;;;;;;;;5073732;28;20162;-80
2021/05/13 03:06:18;;;;;;;2.87;2.50;;;;;;;;;;5073783;28;20175;-80
2021/05/13 03:08:44;;;;;;;3.17;2.80;;;;;;;;;;5074078;28;20182;-80
2021/05/13 03:11:10;;;;;;;3.77;2.90;;;;;;;;;;5074060;28;20167;-80
2021/05/13 03:13:36;;;;;;;4.47;2.90;;;;;;;;;;5073616;28;20175;-80
2021/05/13 03:16:01;;;;;;;4.50;2.90;;;;;;;;;;5074318;28;20228;-80
2021/05/13 03:18:28;;;;;;;2.90;2.70;;;;;;;;;;5073377;28;20231;-80
2021/05/13 03:23:31;;;;;;;4.00;2.70;;;;;;;;;;5073897;28;20163;-80
2021/05/13 03:26:00;;;;;;;3.43;2.53;;;;;;;;;;5074262;28;20197;-80
2021/05/13 03:28:26;;;;;;;3.27;2.97;;;;;;;;;;5074223;28;20203;-80
2021/05/13 03:30:51;;;;;;;4.23;2.80;;;;;;;;;;5074081;28;20168;-80
2021/05/13 03:33:16;;;;;;;4.07;3.13;;;;;;;;;;5073959;28;20243;-80
2021/05/13 03:35:42;;;;;;;4.73;2.93;;;;;;;;;;5073775;28;20193;-80
2021/05/13 03:38:08;;;;;;;6.30;2.77;;;;;;;;;;5073397;28;20288;-80
2021/05/13 03:40:33;;;;;;;3.10;2.80;;;;;;;;;;5073476;28;20301;-80
2021/05/13 03:42:59;;;;;;;4.10;3.00;;;;;;;;;;5073766;28;20163;-80
2021/05/13 03:45:24;;;;;;;4.53;2.73;;;;;;;;;;5074140;28;20174;-80
2021/05/13 03:47:49;;;;;;;3.10;2.80;;;;;;;;;;5073798;28;20175;-80
2021/05/13 03:50:15;;;;;;;4.80;2.90;;;;;;;;;;5074246;28;20167;-80
2021/05/13 03:52:40;;;;;;;3.27;2.97;;;;;;;;;;5055553;28;20261;-79
2021/05/13 03:55:06;;;;;;;4.73;2.90;;;;;;;;;;5073498;28;20163;-79
2021/05/13 03:57:31;;;;;;;4.20;2.80;;;;;;;;;;5073300;28;20198;-79
2021/05/13 03:59:59;;;;;;;4.87;3.30;;;;;;;;;;5073542;28;20217;-79
2021/05/13 04:02:34;;;;;;;3.20;2.90;;;;;;;;;;5055579;28;20189;-80
2021/05/13 04:05:00;;;;;;;3.43;3.10;;;;;;;;;;5073936;28;20159;-80
2021/05/13 04:07:45;;;;;;;4.10;2.90;;;;;;;;;;5073147;28;20508;-80
2021/05/13 04:10:10;;;;;;;4.27;3.10;;;;;;;;;;5073374;28;20189;-80
2021/05/13 04:12:37;;;;;;;4.65;3.08;;;;;;;;;;5073082;28;20179;-78
2021/05/13 04:15:02;;;;;;;3.00;2.80;;;;;;;;;;5074228;28;20195;-78
2021/05/13 04:17:28;;;;;;;5.40;3.30;;;;;;;;;;5076757;28;20270;-79
2021/05/13 04:19:53;;;;;;;4.18;3.15;;;;;;;;;;5076893;28;20171;-79
2021/05/13 04:22:18;;;;;;;3.85;2.90;;;;;;;;;;5077066;28;20178;-79
2021/05/13 04:24:44;;;;;;;5.90;2.83;;;;;;;;;;5077086;28;20167;-79
2021/05/13 04:27:09;;;;;;;4.05;2.72;;;;;;;;;;5076675;28;20182;-79
2021/05/13 04:29:34;;;;;;;4.70;3.22;;;;;;;;;;5076640;28;20163;-79
2021/05/13 04:32:00;;;;;;;3.67;2.75;;;;;;;;;;5076933;28;20194;-79
2021/05/13 04:34:25;;;;;;;8.82;3.20;;;;;;;;;;5076551;28;20204;-79
2021/05/13 04:36:50;;;;;;;3.45;2.95;;;;;;;;;;5077052;28;20197;-79
2021/05/13 04:39:16;;;;;;;2.97;2.78;;;;;;;;;;5076637;28;20159;-79
2021/05/13 04:41:41;;;;;;;3.25;2.95;;;;;;;;;;5076749;28;20171;-79
2021/05/13 04:44:06;;;;;;;4.97;2.65;;;;;;;;;;5077517;28;20167;-79
2021/05/13 04:46:33;;;;;;;3.25;2.95;;;;;;;;;;5076611;28;20526;-79
2021/05/13 04:51:25;;;;;;;3.63;2.95;;;;;;;;;;5076250;28;20570;-80
2021/05/13 04:53:50;;;;;;;5.68;3.20;;;;;;;;;;5076877;28;20171;-80
2021/05/13 04:56:19;;;;;;;4.30;3.15;;;;;;;;;;5076709;28;20171;-80
2021/05/13 04:58:45;;;;;;;3.08;2.88;;;;;;;;;;5076685;28;20288;-79
2021/05/13 05:01:10;;;;;;;3.75;2.80;;;;;;;;;;5076385;28;20171;-80
2021/05/13 05:03:36;;;;;;;3.80;3.03;;;;;;;;;;5076904;28;20171;-80
2021/05/13 05:06:01;;;;;;;2.88;2.67;;;;;;;;;;5076286;28;20495;-80
2021/05/13 05:08:27;;;;;;;3.47;3.17;;;;;;;;;;5076317;28;20175;-80
2021/05/13 05:10:52;;;;;;;3.65;2.90;;;;;;;;;;5075928;28;20525;-80
2021/05/13 05:13:17;;;;;;;3.67;2.95;;;;;;;;;;5076822;28;20167;-80
2021/05/13 05:15:43;;;;;;;3.10;2.90;;;;;;;;;;5077016;28;20256;-80
2021/05/13 05:18:08;;;;;;;2.97;2.58;;;;;;;;;;5076417;28;20227;-79
2021/05/13 05:20:33;;;;;;;4.47;2.92;;;;;;;;;;5076800;28;20175;-79
2021/05/13 05:22:59;;;;;;;2.83;2.63;;;;;;;;;;5076346;28;20167;-80
2021/05/13 05:25:24;;;;;;;3.03;2.72;;;;;;;;;;5076215;28;20160;-80
2021/05/13 05:27:49;;;;;;;4.55;2.97;;;;;;;;;;5075449;28;20179;-80
2021/05/13 05:30:15;;;;;;;3.47;3.05;;;;;;;;;;5075743;28;20529;-80
2021/05/13 05:32:40;;;;;;;5.22;3.38;;;;;;;;;;5075678;28;20187;-80
2021/05/13 05:35:06;;;;;;;4.93;2.95;;;;;;;;;;5076425;28;20167;-80
2021/05/13 05:37:32;;;;;;;6.35;3.15;;;;;;;;;;5075336;28;20199;-80
2021/05/13 05:39:57;;;;;;;7.18;3.33;;;;;;;;;;5076193;28;20168;-80
2021/05/13 05:42:22;;;;;;;4.90;3.22;;;;;;;;;;5075824;28;20175;-80
2021/05/13 05:44:48;;;;;;;5.40;3.20;;;;;;;;;;5075826;28;20257;-80
2021/05/13 05:47:16;;;;;;;5.25;3.42;;;;;;;;;;5075275;28;20692;-80
2021/05/13 05:49:41;;;;;;;6.65;2.80;;;;;;;;;;5075554;28;20174;-80
2021/05/13 05:52:07;;;;;;;7.95;3.53;;;;;;;;;;5075463;28;20167;-80
2021/05/13 05:54:32;;;;;;;3.97;3.30;;;;;;;;;;5075529;28;20178;-80
2021/05/13 05:56:57;;;;;;;7.40;2.92;;;;;;;;;;5075229;28;20575;-80
2021/05/13 05:59:23;;;;;;;7.55;3.28;;;;;;;;;;5074137;28;20179;-80
2021/05/13 06:01:48;;;;;;;7.30;3.40;;;;;;;;;;5073980;28;20301;-82
2021/05/13 06:04:13;;;;;;;5.80;3.00;;;;;;;;;;5056879;28;20179;-81
2021/05/13 06:06:39;;;;;;;7.53;3.15;;;;;;;;;;5074886;28;20214;-80
2021/05/13 06:09:05;;;;;;;4.47;3.25;;;;;;;;;;5074651;28;20204;-80
2021/05/13 06:11:30;;;;;;;5.78;2.90;;;;;;;;;;5072798;28;20201;-80
2021/05/13 06:13:56;;;;;;;7.10;3.50;;;;;;;;;;5074964;28;20176;-80
2021/05/13 06:16:21;;;;;;;7.18;3.10;;;;;;;;;;5074593;28;20249;-81
2021/05/13 06:18:54;;;;;;;3.58;2.85;;;;;;;;;;5074902;28;20213;-80
2021/05/13 06:21:19;;;;;;;3.88;3.28;;;;;;;;;;5074992;28;20175;-80
2021/05/13 06:23:48;;;;;;;6.20;3.40;;;;;;;;;;5074335;28;20163;-80
2021/05/13 06:26:27;;;;;;;5.63;3.20;;;;;;;;;;5074778;28;20167;-80
2021/05/13 06:28:52;;;;;;;6.03;3.42;;;;;;;;;;5074505;28;20175;-80
2021/05/13 06:31:18;;;;;;;6.72;3.17;;;;;;;;;;5074446;28;20645;-80
2021/05/13 06:33:43;;;;;;;3.50;3.05;;;;;;;;;;5074667;28;20241;-80
2021/05/13 06:36:09;;;;;;;4.97;3.47;;;;;;;;;;5074621;28;20180;-80
2021/05/13 06:38:34;;;;;;;3.47;3.17;;;;;;;;;;5073393;28;20210;-80
2021/05/13 06:41:00;;;;;;;4.40;3.08;;;;;;;;;;5090167;28;20196;-81
2021/05/13 06:43:25;;;;;;;5.35;3.40;;;;;;;;;;5074651;28;20256;-81
2021/05/13 06:45:50;;;;;;;3.83;3.38;;;;;;;;;;5073216;28;20175;-80
2021/05/13 06:48:16;;;;;;;3.60;3.20;;;;;;;;;;5073770;28;20538;-80
2021/05/13 06:50:47;;;;;;;4.68;3.35;;;;;;;;;;5074003;28;20182;-80
2021/05/13 06:53:12;;;;;;;6.88;3.70;;;;;;;;;;5074216;28;20631;-81
2021/05/13 06:55:38;;;;;;;3.80;3.50;;;;;;;;;;5074138;28;20177;-81
2021/05/13 06:58:03;;;;;;;4.47;3.25;;;;;;;;;;5073938;28;20313;-81
2021/05/13 07:00:29;;;;;;;6.75;3.53;;;;;;;;;;5074059;28;20679;-81
2021/05/13 07:02:54;;;;;;;4.90;3.65;;;;;;;;;;5073780;28;20198;-81
2021/05/13 07:05:19;;;;;;;7.18;3.50;;;;;;;;;;5074029;28;20199;-81
2021/05/13 07:07:45;;;;;;;5.47;3.65;;;;;;;;;;5074025;28;20181;-81
2021/05/13 07:10:10;;;;;;;4.10;3.50;;;;;;;;;;5074158;28;20526;-81
2021/05/13 07:12:37;;;;;;;7.10;3.47;;;;;;;;;;5074640;28;20603;-81
2021/05/13 07:15:03;;;;;;;4.63;3.65;;;;;;;;;;5073137;28;20258;-81
2021/05/13 07:17:28;;;;;;;4.57;3.30;;;;;;;;;;5073618;28;20238;-81
2021/05/13 07:19:54;;;;;;;4.88;3.50;;;;;;;;;;5073603;28;20685;-81
2021/05/13 07:22:19;;;;;;;8.77;3.40;;;;;;;;;;5073995;28;20167;-81
2021/05/13 07:24:45;;;;;;;4.45;3.50;;;;;;;;;;5073808;28;20606;-81
2021/05/13 07:27:11;;;;;;;6.07;3.40;;;;;;;;;;5055811;28;20260;-80
2021/05/13 07:29:36;;;;;;;5.88;3.55;;;;;;;;;;5073210;28;20206;-80
2021/05/13 07:32:02;;;;;;;12.18;4.25;;;;;;;;;;5072772;28;20237;-80
2021/05/13 07:34:27;;;;;;;3.92;3.55;;;;;;;;;;5074092;28;20251;-80
2021/05/13 07:36:53;;;;;;;14.93;4.15;;;;;;;;;;5073657;28;20528;-80
2021/05/13 07:39:18;;;;;;;3.80;3.30;;;;;;;;;;5073728;28;20207;-80
2021/05/13 07:41:44;;;;;;;4.03;3.38;;;;;;;;;;5073661;28;20637;-80
2021/05/13 07:44:09;;;;;;;6.60;3.78;;;;;;;;;;5074176;28;20517;-79
2021/05/13 07:46:38;;;;;;;6.80;3.50;;;;;;;;;;5073620;28;20632;-79
2021/05/13 07:49:04;;;;;;;5.30;3.58;;;;;;;;;;5073310;28;20258;-79
2021/05/13 07:51:29;;;;;;;3.58;3.25;;;;;;;;;;5077123;28;20173;-80
2021/05/13 07:53:54;;;;;;;4.22;3.22;;;;;;;;;;5077667;28;20171;-80
2021/05/13 07:56:20;;;;;;;10.02;3.90;;;;;;;;;;5059663;28;20171;-80
2021/05/13 07:58:45;;;;;;;8.82;3.40;;;;;;;;;;5077537;28;20199;-80
2021/05/13 08:01:10;;;;;;;3.63;3.08;;;;;;;;;;5077774;28;20498;-80
2021/05/13 08:03:36;;;;;;;5.60;3.85;;;;;;;;;;5076342;28;20179;-80
2021/05/13 08:06:01;;;;;;;5.63;3.40;;;;;;;;;;5076638;28;20163;-80
2021/05/13 08:08:26;;;;;;;5.80;3.83;;;;;;;;;;5076825;28;20182;-80
2021/05/13 08:10:52;;;;;;;3.63;3.30;;;;;;;;;;5076413;28;20218;-80
2021/05/13 08:13:17;;;;;;;7.57;3.97;;;;;;;;;;5077032;28;20175;-79
2021/05/13 08:15:44;;;;;;;3.55;3.25;;;;;;;;;;5077005;28;20232;-79
2021/05/13 08:18:09;;;;;;;4.00;3.50;;;;;;;;;;5088898;28;20262;-80
2021/05/13 08:20:35;;;;;;;5.60;3.50;;;;;;;;;;5057692;28;20504;-79
2021/05/13 08:23:00;;;;;;;5.05;3.50;;;;;;;;;;5056831;28;20176;-79
2021/05/13 08:25:25;;;;;;;3.83;3.38;;;;;;;;;;5055753;28;20249;-80
2021/05/13 08:27:51;;;;;;;3.45;3.20;;;;;;;;;;5057197;28;20530;-79
2021/05/13 08:30:16;;;;;;;4.78;3.20;;;;;;;;;;5055623;28;20199;-79
2021/05/13 08:32:42;;;;;;;3.47;3.17;;;;;;;;;;5056681;28;20216;-79
2021/05/13 08:35:07;;;;;;;7.43;3.20;;;;;;;;;;5056514;28;20168;-79
2021/05/13 08:37:33;;;;;;;3.20;2.92;;;;;;;;;;5056831;28;20207;-79
2021/05/13 08:39:58;;;;;;;3.90;2.80;;;;;;;;;;5056703;28;20197;-79
2021/05/13 08:42:24;;;;;;;2.90;2.70;;;;;;;;;;5056724;28;20174;-79
2021/05/13 08:44:49;;;;;;;3.75;3.20;;;;;;;;;;5056438;28;20164;-79
2021/05/13 08:47:15;;;;;;;4.93;3.17;;;;;;;;;;5056556;28;20630;-79
2021/05/13 08:49:41;;;;;;;5.83;3.20;;;;;;;;;;5056723;28;20163;-79
2021/05/13 08:52:09;;;;;;;3.60;3.10;;;;;;;;;;5056288;28;20168;-79
2021/05/13 08:54:35;;;;;;;4.87;3.50;;;;;;;;;;5088665;28;20184;-79
2021/05/13 08:57:00;;;;;;;3.67;2.77;;;;;;;;;;5056419;28;20164;-79
2021/05/13 08:59:27;;;;;;;3.47;3.00;;;;;;;;;;5056489;28;20184;-79
2021/05/13 09:01:54;;;;;;;4.17;2.90;;;;;;;;;;5055452;28;20171;-79
2021/05/13 09:04:19;;;;;;;4.00;3.47;;;;;;;;;;5056298;28;20202;-79
2021/05/13 09:06:46;;;;;;;5.60;3.63;;;;;;;;;;5055444;28;20270;-79
2021/05/13 09:09:18;;;;;;;4.60;4.13;;;;;;;;;;5088782;28;20187;-79
2021/05/13 09:11:54;;;;;;;4.90;4.47;;;;;;;;;;5056410;28;20263;-79
2021/05/13 09:14:27;;;;;;;5.83;4.80;;;;;;;;;;5056152;28;20633;-79
2021/05/13 09:16:53;;;;;;;6.10;5.53;;;;;;;;;;5062852;28;20650;-79
2021/05/13 09:19:20;;;;;;;9.53;6.00;;;;;;;;;;5076033;28;20281;-79
2021/05/13 09:21:56;;;;;;;5.40;4.93;;;;;;;;;;5075931;28;20250;-79
2021/05/13 09:24:40;;;;;;;6.20;5.60;;;;;;;;;;5091401;28;20500;-79
2021/05/13 09:27:15;;;;;;;6.30;5.57;;;;;;;;;;5075659;28;20163;-81
2021/05/13 09:29:41;;;;;;;6.27;5.67;;;;;;;;;;5075889;28;20174;-79
2021/05/13 09:32:16;;;;;;;8.60;6.47;;;;;;;;;;5076531;28;20236;-79
2021/05/13 09:34:41;;;;;;;7.50;6.80;;;;;;;;;;5094069;28;20527;-79
2021/05/13 09:37:06;;;;;;;7.30;6.60;;;;;;;;;;5075199;28;20175;-79
2021/05/13 09:39:32;;;;;;;6.93;6.10;;;;;;;;;;5075078;28;20163;-79
2021/05/13 09:41:57;;;;;;;10.57;6.57;;;;;;;;;;5057887;28;20175;-79
2021/05/13 09:44:36;;;;;;;9.00;6.40;;;;;;;;;;5095650;28;20202;-80
2021/05/13 09:47:19;;;;;;;7.07;6.47;;;;;;;;;;5085468;28;20225;-78
2021/05/13 09:49:59;;;;;;;6.47;5.97;;;;;;;;;;5057422;28;20288;-79
2021/05/13 09:52:40;;;;;;;6.83;6.20;;;;;;;;;;5056420;28;20641;-79
2021/05/13 09:55:11;;;;;;;6.00;5.50;;;;;;;;;;5075505;28;20167;-79
2021/05/13 09:57:36;;;;;;;7.87;5.70;;;;;;;;;;5057711;28;20207;-79
2021/05/13 10:00:02;;;;;;;7.33;5.90;;;;;;;;;;5075203;28;20174;-78
2021/05/13 10:02:27;;;;;;;6.33;5.73;;;;;;;;;;5074641;28;20213;-78
2021/05/13 10:04:53;;;;;;;6.60;5.93;;;;;;;;;;5074848;28;20172;-78
2021/05/13 10:07:18;;;;;;;7.80;6.30;;;;;;;;;;5075335;28;20178;-78
2021/05/13 10:09:54;;;;;;;6.80;6.10;;;;;;;;;;5075305;28;20163;-79
2021/05/13 10:12:20;;;;;;;7.77;6.53;;;;;;;;;;5074633;28;20159;-79
2021/05/13 10:14:47;;;;;;;7.13;6.53;;;;;;;;;;5075186;28;20167;-79
2021/05/13 10:17:13;;;;;;;7.60;6.13;;;;;;;;;;5074905;28;20227;-79
2021/05/13 10:19:46;;;;;;;8.87;6.97;;;;;;;;;;5074745;28;20571;-79
2021/05/13 10:22:13;;;;;;;6.63;6.03;;;;;;;;;;5075039;28;20171;-79
2021/05/13 10:24:39;;;;;;;7.60;6.87;;;;;;;;;;5055626;28;20735;-79
2021/05/13 10:27:14;;;;;;;7.63;6.93;;;;;;;;;;5074358;28;20258;-79
2021/05/13 10:29:41;;;;;;;8.20;6.17;;;;;;;;;;5074772;28;20324;-79
2021/05/13 10:32:16;;;;;;;5.37;4.87;;;;;;;;;;5074784;28;20611;-79
2021/05/13 10:34:42;;;;;;;5.37;4.23;;;;;;;;;;5074898;28;20243;-79
2021/05/13 10:37:17;;;;;;;5.80;5.03;;;;;;;;;;5074691;28;20199;-79
2021/05/13 10:40:01;;;;;;;6.37;5.57;;;;;;;;;;5056500;28;20186;-79
2021/05/13 10:42:30;;;;;;;5.87;4.50;;;;;;;;;;5074058;28;20267;-79
2021/05/13 10:44:56;;;;;;;5.80;5.20;;;;;;;;;;5074455;28;20217;-79
2021/05/13 10:47:28;;;;;;;4.90;4.30;;;;;;;;;;5056424;28;20174;-81
2021/05/13 10:49:54;;;;;;;4.77;4.37;;;;;;;;;;5056369;28;20173;-79
2021/05/13 10:52:30;;;;;;;5.27;4.77;;;;;;;;;;5073163;28;20179;-79
2021/05/13 10:54:55;;;;;;;4.87;4.47;;;;;;;;;;5074224;28;20178;-79
2021/05/13 10:57:20;;;;;;;4.37;3.97;;;;;;;;;;5073968;28;20168;-79
2021/05/13 11:00:07;;;;;;;5.47;3.90;;;;;;;;;;5073923;28;20621;-79
2021/05/13 11:02:37;;;;;;;4.67;3.73;;;;;;;;;;5074672;28;20169;-79
2021/05/13 11:05:22;;;;;;;6.73;4.00;;;;;;;;;;5074561;28;20509;-79
2021/05/13 11:07:47;;;;;;;4.53;3.73;;;;;;;;;;5073124;28;20174;-82
2021/05/13 11:10:13;;;;;;;5.70;3.93;;;;;;;;;;5073627;28;20175;-79
2021/05/13 11:12:39;;;;;;;6.10;3.70;;;;;;;;;;5073265;28;20178;-80
2021/05/13 11:15:11;;;;;;;5.60;4.10;;;;;;;;;;5073562;28;20171;-79
2021/05/13 11:17:45;;;;;;;4.90;3.60;;;;;;;;;;5073095;28;20764;-81
2021/05/13 11:20:21;;;;;;;4.80;4.03;;;;;;;;;;5073598;28;20171;-80
2021/05/13 11:23:05;;;;;;;5.00;3.57;;;;;;;;;;5073602;28;20624;-80
2021/05/13 11:25:40;;;;;;;6.10;3.67;;;;;;;;;;5072974;28;20233;-80
2021/05/13 11:28:25;;;;;;;4.70;3.90;;;;;;;;;;5074083;28;20177;-80
2021/05/13 11:30:52;;;;;;;6.67;3.77;;;;;;;;;;5073262;28;20194;-79
2021/05/13 11:33:17;;;;;;;4.63;3.90;;;;;;;;;;5073964;28;20587;-80
2021/05/13 11:35:43;;;;;;;4.23;3.70;;;;;;;;;;5055448;28;20187;-79
2021/05/13 11:38:14;;;;;;;3.87;3.47;;;;;;;;;;5072926;28;20533;-80
2021/05/13 11:40:40;;;;;;;4.00;3.70;;;;;;;;;;5055731;28;20232;-79
2021/05/13 11:43:25;;;;;;;7.47;4.20;;;;;;;;;;5073007;28;20175;-79
2021/05/13 11:45:51;;;;;;;6.43;3.80;;;;;;;;;;5073842;28;20171;-80
2021/05/13 11:48:27;;;;;;;4.10;3.70;;;;;;;;;;5071641;28;20187;-79
2021/05/13 11:50:53;;;;;;;5.10;3.60;;;;;;;;;;5073831;28;20553;-79
2021/05/13 11:53:20;;;;;;;6.60;3.90;;;;;;;;;;5073219;28;20633;-80
2021/05/13 11:55:46;;;;;;;5.77;3.70;;;;;;;;;;5073539;28;20647;-79
2021/05/13 11:58:13;;;;;;;5.37;3.77;;;;;;;;;;5055178;28;20605;-79
2021/05/13 12:00:40;;;;;;;8.13;3.47;;;;;;;;;;5072954;28;20776;-79
2021/05/13 12:03:11;;;;;;;4.00;3.60;;;;;;;;;;5055362;28;20524;-80
2021/05/13 12:05:47;;;;;;;4.10;3.67;;;;;;;;;;5073192;28;20167;-80
2021/05/13 12:08:19;;;;;;;4.70;3.43;;;;;;;;;;5073205;28;20175;-80
2021/05/13 12:10:45;;;;;;;5.00;3.87;;;;;;;;;;5055280;28;20982;-80
2021/05/13 12:13:10;;;;;;;4.07;3.70;;;;;;;;;;5072906;28;20171;-80
2021/05/13 12:15:36;;;;;;;4.30;3.90;;;;;;;;;;5073277;28;20171;-80
2021/05/13 12:18:01;;;;;;;4.27;3.90;;;;;;;;;;5072479;28;20770;-79
2021/05/13 12:20:26;;;;;;;5.07;3.97;;;;;;;;;;5053398;28;20567;-79
2021/05/13 12:22:52;;;;;;;3.80;3.50;;;;;;;;;;5072589;28;20496;-79
2021/05/13 12:25:18;;;;;;;3.93;3.60;;;;;;;;;;5072971;28;20193;-79
2021/05/13 12:27:44;;;;;;;4.23;3.90;;;;;;;;;;5070072;28;20186;-79
2021/05/13 12:30:10;;;;;;;5.10;3.87;;;;;;;;;;5073047;28;20167;-79
2021/05/13 12:32:35;;;;;;;5.07;3.63;;;;;;;;;;5072221;28;20203;-79
2021/05/13 12:35:19;;;;;;;5.90;3.90;;;;;;;;;;5072711;28;20167;-79
2021/05/13 12:37:44;;;;;;;3.93;3.40;;;;;;;;;;5073599;28;20710;-79
2021/05/13 12:40:10;;;;;;;5.95;3.80;;;;;;;;;;5091529;28;20179;-79
2021/05/13 12:42:35;;;;;;;6.55;4.30;;;;;;;;;;5075831;28;20216;-79
2021/05/13 12:45:17;;;;;;;4.10;3.63;;;;;;;;;;5074781;28;20560;-79
2021/05/13 12:47:43;;;;;;;4.15;3.83;;;;;;;;;;5075034;28;20175;-79
2021/05/13 12:50:09;;;;;;;5.43;4.00;;;;;;;;;;5057681;28;20179;-79
2021/05/13 12:52:34;;;;;;;6.32;4.07;;;;;;;;;;5075620;28;20187;-79
2021/05/13 12:55:10;;;;;;;4.67;4.27;;;;;;;;;;5057793;28;20178;-79
2021/05/13 12:57:40;;;;;;;5.25;4.50;;;;;;;;;;5074856;28;20577;-79
2021/05/13 13:00:06;;;;;;;5.05;4.32;;;;;;;;;;5057812;28;20529;-79
2021/05/13 13:02:31;;;;;;;5.80;3.90;;;;;;;;;;5075639;28;20167;-80
2021/05/13 13:05:04;;;;;;;5.85;4.07;;;;;;;;;;5057238;28;20171;-80
2021/05/13 13:07:48;;;;;;;7.33;4.97;;;;;;;;;;5057335;28;20194;-80
2021/05/13 13:10:32;;;;;;;9.67;4.70;;;;;;;;;;5091337;28;20174;-80
2021/05/13 13:13:03;;;;;;;8.20;4.70;;;;;;;;;;5057621;28;20519;-80
2021/05/13 13:15:38;;;;;;;5.57;4.43;;;;;;;;;;5076098;28;20202;-80
2021/05/13 13:18:08;;;;;;;7.07;4.30;;;;;;;;;;5057512;28;20237;-80
2021/05/13 13:20:33;;;;;;;5.50;4.50;;;;;;;;;;5075827;28;20175;-80
2021/05/13 13:23:17;;;;;;;6.85;4.60;;;;;;;;;;5075496;28;20179;-80
2021/05/13 13:25:42;;;;;;;5.53;4.03;;;;;;;;;;5074787;28;20170;-79
2021/05/13 13:28:08;;;;;;;4.70;4.30;;;;;;;;;;5075144;28;20177;-80
2021/05/13 13:30:34;;;;;;;7.32;4.50;;;;;;;;;;5075331;28;20199;-80
2021/05/13 13:33:09;;;;;;;9.07;4.78;;;;;;;;;;5075099;28;20202;-79
2021/05/13 13:35:38;;;;;;;4.75;4.35;;;;;;;;;;5073705;28;20163;-80
2021/05/13 13:38:04;;;;;;;6.28;4.85;;;;;;;;;;5056922;28;20195;-81
2021/05/13 13:40:29;;;;;;;5.60;4.43;;;;;;;;;;5057099;28;20632;-80
2021/05/13 13:42:54;;;;;;;5.07;4.68;;;;;;;;;;5075410;28;20179;-79
2021/05/13 13:45:20;;;;;;;5.60;4.68;;;;;;;;;;5084822;28;20179;-79
2021/05/13 13:47:45;;;;;;;5.35;4.78;;;;;;;;;;5095621;28;20181;-80
2021/05/13 13:50:10;;;;;;;5.25;4.75;;;;;;;;;;5095678;28;20253;-80
2021/05/13 13:52:36;;;;;;;5.53;4.60;;;;;;;;;;5080035;28;20209;-80
2021/05/13 13:55:01;;;;;;;6.30;4.68;;;;;;;;;;5075390;28;20600;-80
2021/05/13 13:57:26;;;;;;;5.00;4.50;;;;;;;;;;5074718;28;20171;-80
2021/05/13 13:59:52;;;;;;;5.18;4.68;;;;;;;;;;5075222;28;20163;-80
2021/05/13 14:02:18;;;;;;;7.72;4.80;;;;;;;;;;5075192;28;20732;-80
2021/05/13 14:04:44;;;;;;;5.78;5.30;;;;;;;;;;5075386;28;20233;-80
2021/05/13 14:07:09;;;;;;;5.43;4.75;;;;;;;;;;5075002;28;20529;-80
2021/05/13 14:09:35;;;;;;;5.43;5.03;;;;;;;;;;5074741;28;20205;-80
2021/05/13 14:12:01;;;;;;;5.00;4.50;;;;;;;;;;5074977;28;20605;-80
2021/05/13 14:14:26;;;;;;;6.75;4.68;;;;;;;;;;5074145;28;20182;-80
2021/05/13 14:16:51;;;;;;;5.38;4.88;;;;;;;;;;5074795;28;20223;-80
2021/05/13 14:19:17;;;;;;;4.97;4.53;;;;;;;;;;5074521;28;20195;-80
2021/05/13 14:21:42;;;;;;;6.43;5.32;;;;;;;;;;5074645;28;20167;-80
2021/05/13 14:24:08;;;;;;;6.57;4.68;;;;;;;;;;5074768;28;20171;-80
2021/05/13 14:26:33;;;;;;;7.00;5.20;;;;;;;;;;5085639;28;20179;-80
2021/05/13 14:28:58;;;;;;;6.03;4.88;;;;;;;;;;5058512;28;20228;-80
2021/05/13 14:31:24;;;;;;;7.20;5.90;;;;;;;;;;5076062;28;20175;-80
2021/05/13 14:33:49;;;;;;;7.20;4.90;;;;;;;;;;5082364;28;20168;-80
2021/05/13 14:36:14;;;;;;;5.82;4.93;;;;;;;;;;5084497;28;20174;-80
2021/05/13 14:38:40;;;;;;;6.05;5.13;;;;;;;;;;5083035;28;20587;-80
2021/05/13 14:41:06;;;;;;;5.65;5.13;;;;;;;;;;5090999;28;20175;-82
2021/05/13 14:43:31;;;;;;;5.68;5.07;;;;;;;;;;5094095;28;20523;-81
2021/05/13 14:45:56;;;;;;;5.97;5.28;;;;;;;;;;5093898;28;20170;-80
2021/05/13 14:48:23;;;;;;;5.88;5.28;;;;;;;;;;5077961;28;20966;-81
2021/05/13 14:50:49;;;;;;;9.90;5.78;;;;;;;;;;5088387;28;20545;-80